Time;durP1;ratioP1;P1;durP2;ratioP2;P2;SDS_P1;SDS_P2;PMS_P1;PMS_P2;Temp;Humidity;BMP_temperature;BMP_pressure;BME280_temperature;BME280_humidity;BME280_pressure;Samples;Min_cycle;Max_cycle;Signal;HPM_P1;HPM_P2
2022/08/20 00:01:14;;;;;;;7.80;5.00;;;23.90;58.30;;;;;;5973220;29;20121;-74
2022/08/20 00:04:16;;;;;;;14.48;6.15;;;23.90;58.20;;;;;;5995004;29;20045;-74
2022/08/20 00:07:17;;;;;;;10.15;5.60;;;23.90;58.20;;;;;;6005475;29;20042;-73
2022/08/20 00:10:19;;;;;;;8.32;5.35;;;23.90;58.20;;;;;;5990037;29;20044;-73
2022/08/20 00:13:24;;;;;;;8.85;4.95;;;23.90;58.20;;;;;;5988716;29;20046;-74
2022/08/20 00:16:31;;;;;;;10.68;5.05;;;23.90;58.20;;;;;;6007315;29;20038;-73
2022/08/20 00:19:33;;;;;;;8.60;5.38;;;23.90;58.20;;;;;;6006888;29;20182;-74
2022/08/20 00:22:34;;;;;;;6.93;5.13;;;23.90;58.10;;;;;;5975829;29;20042;-74
2022/08/20 00:25:35;;;;;;;10.52;5.03;;;23.90;58.10;;;;;;5982076;29;20050;-74
2022/08/20 00:28:37;;;;;;;8.38;4.97;;;23.90;58.10;;;;;;6007941;29;20042;-73
2022/08/20 00:31:38;;;;;;;8.25;5.05;;;23.90;58.20;;;;;;6006923;29;20071;-74
2022/08/20 00:34:40;;;;;;;8.48;5.68;;;23.90;58.20;;;;;;6007924;29;20038;-73
2022/08/20 00:37:42;;;;;;;9.18;4.90;;;23.90;58.30;;;;;;6006287;29;20046;-74
2022/08/20 00:40:47;;;;;;;6.55;4.82;;;23.80;58.90;;;;;;6007188;29;20038;-73
2022/08/20 00:44:09;;;;;;;7.13;4.82;;;23.80;58.40;;;;;;6007181;29;20056;-73
2022/08/20 00:47:10;;;;;;;11.88;5.38;;;23.80;58.40;;;;;;6004241;29;20037;-73
2022/08/20 00:50:14;;;;;;;8.52;5.75;;;23.80;58.30;;;;;;6020897;29;20041;-74
2022/08/20 00:53:18;;;;;;;7.97;4.95;;;23.80;58.30;;;;;;6005445;29;20041;-73
2022/08/20 00:56:19;;;;;;;9.85;5.43;;;23.70;58.30;;;;;;6006965;29;20046;-74
2022/08/20 00:59:24;;;;;;;10.10;5.25;;;23.70;58.30;;;;;;6005525;29;20196;-73
2022/08/20 01:02:29;;;;;;;6.80;4.75;;;23.70;58.50;;;;;;6005705;29;20034;-73
2022/08/20 01:05:30;;;;;;;7.93;5.18;;;23.60;58.50;;;;;;6012326;29;20049;-74
2022/08/20 01:08:31;;;;;;;10.32;5.03;;;23.60;58.50;;;;;;6006673;29;20117;-73
2022/08/20 01:11:34;;;;;;;8.25;5.43;;;23.50;58.60;;;;;;6008592;29;20042;-73
2022/08/20 01:17:44;;;;;;;10.07;5.18;;;23.50;58.90;;;;;;6010143;29;20029;-73
2022/08/20 01:20:51;;;;;;;11.65;5.45;;;23.50;58.90;;;;;;6007612;29;20226;-73
2022/08/20 01:24:21;;;;;;;8.95;5.65;;;23.40;58.90;;;;;;6009904;29;20132;-73
2022/08/20 01:27:23;;;;;;;9.88;4.95;;;23.40;59.00;;;;;;6009116;29;20065;-73
2022/08/20 01:30:27;;;;;;;9.25;4.63;;;23.40;59.00;;;;;;6008764;29;20030;-73
2022/08/20 01:33:28;;;;;;;7.57;4.88;;;23.30;59.10;;;;;;6008074;29;20037;-74
2022/08/20 01:36:44;;;;;;;8.20;4.93;;;23.30;59.30;;;;;;5976606;29;20049;-74
2022/08/20 01:39:45;;;;;;;9.32;4.72;;;23.20;59.60;;;;;;5989648;29;20053;-73
2022/08/20 01:42:49;;;;;;;11.38;6.07;;;23.20;59.60;;;;;;5991683;29;20061;-74
2022/08/20 01:45:51;;;;;;;8.52;5.30;;;23.10;59.80;;;;;;5991355;29;20060;-73
2022/08/20 01:48:54;;;;;;;9.88;5.55;;;23.10;59.90;;;;;;6009345;29;20052;-74
2022/08/20 01:52:00;;;;;;;13.05;5.35;;;23.00;60.20;;;;;;6009113;29;20132;-74
2022/08/20 01:55:03;;;;;;;8.88;5.45;;;23.00;60.40;;;;;;5992745;29;20042;-73
2022/08/20 01:58:04;;;;;;;11.43;5.10;;;22.90;60.50;;;;;;5991324;29;20093;-75
2022/08/20 02:01:05;;;;;;;10.07;5.40;;;22.90;60.50;;;;;;5993092;29;20125;-73
2022/08/20 02:04:09;;;;;;;7.70;5.13;;;22.90;60.60;;;;;;5994502;29;20452;-73
2022/08/20 02:07:20;;;;;;;9.60;5.30;;;22.90;60.50;;;;;;5993050;29;20380;-74
2022/08/20 02:10:22;;;;;;;14.75;4.75;;;22.90;60.40;;;;;;5993689;29;20038;-73
2022/08/20 02:13:23;;;;;;;10.18;4.78;;;22.90;60.30;;;;;;6007998;29;20128;-73
2022/08/20 02:16:29;;;;;;;10.00;5.47;;;22.90;60.20;;;;;;6008139;29;20476;-73
2022/08/20 02:19:58;;;;;;;5.35;4.20;;;22.90;60.20;;;;;;6008822;29;20046;-75
2022/08/20 02:23:00;;;;;;;8.73;5.60;;;22.90;60.10;;;;;;6006954;29;20049;-75
2022/08/20 02:26:01;;;;;;;8.50;5.32;;;23.00;60.00;;;;;;6018641;29;20046;-72
2022/08/20 02:29:06;;;;;;;7.95;4.78;;;23.00;60.00;;;;;;6006918;29;20464;-73
2022/08/20 02:32:08;;;;;;;10.43;5.22;;;23.00;60.00;;;;;;6022430;29;20060;-73
2022/08/20 02:35:11;;;;;;;13.50;5.70;;;23.00;60.00;;;;;;6007641;29;20042;-73
2022/08/20 02:38:14;;;;;;;8.10;4.97;;;23.00;60.10;;;;;;6015152;29;20038;-73
2022/08/20 02:41:15;;;;;;;8.93;4.38;;;23.00;60.10;;;;;;5991674;29;20074;-73
2022/08/20 02:44:19;;;;;;;8.98;5.20;;;22.90;60.00;;;;;;6002593;29;20072;-73
2022/08/20 02:47:20;;;;;;;10.35;4.85;;;23.00;60.10;;;;;;6006964;29;20568;-73
2022/08/20 02:50:23;;;;;;;12.18;5.05;;;23.00;60.20;;;;;;6001901;29;20046;-73
2022/08/20 02:53:26;;;;;;;6.93;5.03;;;23.00;60.20;;;;;;6006845;29;20045;-73
2022/08/20 02:56:27;;;;;;;8.57;5.78;;;22.90;60.20;;;;;;6012946;29;20041;-72
2022/08/20 02:59:28;;;;;;;15.20;5.68;;;22.90;60.20;;;;;;6008165;29;20042;-73
2022/08/20 03:02:30;;;;;;;9.95;5.10;;;22.80;60.20;;;;;;6021999;29;20064;-74
2022/08/20 03:05:32;;;;;;;9.57;5.55;;;22.90;60.40;;;;;;6008085;29;20466;-73
2022/08/20 03:08:33;;;;;;;7.05;4.88;;;22.80;60.50;;;;;;6007211;29;20097;-73
2022/08/20 03:11:34;;;;;;;10.65;5.30;;;22.80;60.60;;;;;;6009021;29;20117;-73
2022/08/20 03:14:36;;;;;;;12.35;5.95;;;22.80;60.70;;;;;;6007200;29;20070;-73
2022/08/20 03:17:37;;;;;;;9.63;5.18;;;22.70;60.80;;;;;;6011443;29;20098;-72
2022/08/20 03:20:39;;;;;;;7.07;4.63;;;22.70;60.90;;;;;;6006182;29;20040;-73
2022/08/20 03:23:41;;;;;;;19.00;4.95;;;22.60;61.00;;;;;;6005096;29;20042;-73
2022/08/20 03:26:42;;;;;;;6.85;4.47;;;22.60;61.10;;;;;;6016914;29;20042;-73
2022/08/20 03:29:43;;;;;;;10.85;4.57;;;22.60;61.20;;;;;;6008080;29;20041;-73
2022/08/20 03:32:45;;;;;;;8.07;5.50;;;22.60;61.20;;;;;;6010315;29;20094;-73
2022/08/20 03:35:47;;;;;;;12.45;5.30;;;22.60;61.20;;;;;;6023270;29;20034;-73
2022/08/20 03:38:49;;;;;;;15.63;5.97;;;22.60;61.30;;;;;;6009899;29;20408;-74
2022/08/20 03:41:50;;;;;;;8.45;4.95;;;22.60;61.30;;;;;;6009196;29;20045;-73
2022/08/20 03:44:51;;;;;;;8.98;4.20;;;22.60;61.40;;;;;;6008330;29;20052;-73
2022/08/20 03:47:53;;;;;;;12.95;4.90;;;22.50;61.50;;;;;;6008718;29;20094;-74
2022/08/20 03:50:57;;;;;;;9.35;5.20;;;22.50;62.30;;;;;;6012751;29;20050;-74
2022/08/20 03:53:58;;;;;;;8.13;5.15;;;22.50;61.60;;;;;;6007230;29;20488;-73
2022/08/20 03:57:01;;;;;;;10.43;4.97;;;22.50;61.60;;;;;;6006723;29;20045;-73
2022/08/20 04:00:05;;;;;;;9.55;5.65;;;22.50;61.70;;;;;;6007117;29;20054;-73
2022/08/20 04:03:13;;;;;;;12.70;5.40;;;22.50;61.70;;;;;;6010430;29;20117;-73
2022/08/20 04:06:14;;;;;;;7.28;4.57;;;22.50;61.70;;;;;;6012641;29;20153;-74
2022/08/20 04:09:15;;;;;;;14.20;5.82;;;22.50;61.80;;;;;;6008300;29;20045;-74
2022/08/20 04:12:17;;;;;;;10.15;5.13;;;22.50;61.80;;;;;;6006732;29;20128;-73
2022/08/20 04:15:19;;;;;;;8.02;5.40;;;22.50;61.90;;;;;;6007957;29;20045;-73
2022/08/20 04:18:22;;;;;;;7.30;5.07;;;22.50;61.90;;;;;;6012907;29;20048;-74
2022/08/20 04:21:24;;;;;;;9.00;5.50;;;22.50;61.90;;;;;;6001157;29;20050;-74
2022/08/20 04:24:26;;;;;;;9.00;5.15;;;22.50;61.90;;;;;;6007115;29;20392;-74
2022/08/20 04:27:27;;;;;;;7.40;4.85;;;22.50;61.90;;;;;;5982524;29;20074;-73
2022/08/20 04:30:29;;;;;;;13.90;5.50;;;22.40;61.90;;;;;;6005169;29;20034;-74
2022/08/20 04:33:30;;;;;;;16.05;5.38;;;22.40;62.80;;;;;;5994327;29;20041;-74
2022/08/20 04:36:32;;;;;;;14.70;5.28;;;22.30;62.10;;;;;;5990521;29;20196;-74
2022/08/20 04:39:34;;;;;;;10.27;5.18;;;22.30;62.10;;;;;;5991853;29;20046;-73
2022/08/20 04:42:36;;;;;;;8.18;4.97;;;22.30;62.20;;;;;;6008481;29;20075;-73
2022/08/20 04:45:38;;;;;;;11.95;5.72;;;22.30;62.20;;;;;;6008427;29;20046;-73
2022/08/20 04:48:39;;;;;;;8.82;5.28;;;22.30;62.30;;;;;;6011093;29;20342;-74
2022/08/20 04:51:41;;;;;;;9.73;5.18;;;22.30;62.30;;;;;;6011933;29;20056;-74
2022/08/20 04:54:42;;;;;;;9.07;5.05;;;22.30;62.30;;;;;;6013322;29;20038;-74
2022/08/20 04:57:44;;;;;;;6.88;5.07;;;22.30;62.30;;;;;;6013083;29;20034;-74
2022/08/20 05:00:51;;;;;;;7.18;4.82;;;22.20;62.20;;;;;;5994971;29;20046;-74
2022/08/20 05:03:53;;;;;;;10.43;4.90;;;22.30;62.30;;;;;;6012861;29;20462;-74
2022/08/20 05:06:54;;;;;;;7.68;4.90;;;22.30;62.30;;;;;;6011311;29;20055;-74
2022/08/20 05:09:55;;;;;;;10.75;5.28;;;22.30;62.40;;;;;;5996273;29;20116;-74
2022/08/20 05:12:56;;;;;;;8.43;4.63;;;22.20;62.60;;;;;;5996559;29;20042;-74
2022/08/20 05:16:00;;;;;;;9.60;4.88;;;22.20;62.60;;;;;;5980317;29;20038;-74
2022/08/20 05:19:01;;;;;;;8.30;4.90;;;22.20;62.80;;;;;;5994916;29;20041;-74
2022/08/20 05:22:03;;;;;;;8.13;5.50;;;22.30;62.90;;;;;;5993822;29;20041;-74
2022/08/20 05:25:05;;;;;;;18.60;5.35;;;22.30;63.00;;;;;;6011735;29;20077;-74
2022/08/20 05:28:15;;;;;;;12.55;5.65;;;22.30;63.00;;;;;;6012252;29;20065;-74
2022/08/20 05:31:16;;;;;;;8.43;5.10;;;22.30;62.90;;;;;;5991762;29;20117;-74
2022/08/20 05:34:17;;;;;;;13.00;5.35;;;22.30;62.80;;;;;;6012200;29;20410;-74
2022/08/20 05:37:18;;;;;;;9.52;5.38;;;22.30;62.80;;;;;;5994825;29;20089;-74
2022/08/20 05:40:21;;;;;;;10.65;5.30;;;22.30;62.80;;;;;;6012049;29;20037;-74
2022/08/20 05:43:23;;;;;;;7.38;4.93;;;22.40;62.80;;;;;;6011921;29;20090;-75
2022/08/20 05:46:24;;;;;;;7.47;4.97;;;22.40;62.70;;;;;;6011343;29;20041;-74
2022/08/20 05:49:25;;;;;;;7.00;4.85;;;22.50;62.60;;;;;;5993740;29;20038;-74
2022/08/20 05:52:28;;;;;;;10.68;5.75;;;22.50;62.40;;;;;;5991628;29;20037;-74
2022/08/20 05:55:29;;;;;;;11.10;5.63;;;22.60;62.20;;;;;;6006647;29;20041;-75
2022/08/20 05:58:31;;;;;;;16.77;4.47;;;22.70;61.90;;;;;;5994390;29;20061;-74
2022/08/20 06:01:35;;;;;;;8.77;4.75;;;22.80;61.60;;;;;;6003685;29;20037;-74
2022/08/20 06:04:36;;;;;;;8.38;5.03;;;22.80;61.20;;;;;;5976138;29;20048;-74
2022/08/20 06:07:38;;;;;;;7.10;3.92;;;22.90;60.90;;;;;;6008838;29;20042;-74
2022/08/20 06:10:40;;;;;;;12.38;5.13;;;23.00;60.50;;;;;;6010690;29;20417;-74
2022/08/20 06:13:41;;;;;;;9.32;4.57;;;23.10;60.20;;;;;;6010584;29;20380;-74
2022/08/20 06:16:43;;;;;;;9.77;4.53;;;23.20;60.00;;;;;;5994612;29;20098;-74
2022/08/20 06:19:46;;;;;;;12.82;4.93;;;23.30;59.80;;;;;;6011736;29;20041;-74
2022/08/20 06:22:47;;;;;;;8.50;4.68;;;23.40;59.40;;;;;;5991571;29;20106;-74
2022/08/20 06:25:49;;;;;;;7.80;4.22;;;23.50;59.10;;;;;;6013558;29;20050;-74
2022/08/20 06:28:50;;;;;;;9.57;4.68;;;23.70;58.90;;;;;;6013503;29;20042;-74
2022/08/20 06:31:51;;;;;;;9.23;4.55;;;23.80;58.50;;;;;;6010587;29;20053;-74
2022/08/20 06:34:52;;;;;;;6.00;4.07;;;24.00;58.30;;;;;;6010884;29;20049;-74
2022/08/20 06:37:56;;;;;;;6.00;4.18;;;24.20;57.80;;;;;;5994441;29;20073;-74
2022/08/20 06:40:58;;;;;;;8.25;4.40;;;24.30;57.40;;;;;;6009129;29;20094;-74
2022/08/20 06:43:59;;;;;;;8.07;4.38;;;24.40;57.00;;;;;;6007729;29;20044;-74
2022/08/20 06:47:02;;;;;;;6.70;4.28;;;24.40;56.70;;;;;;6009734;29;20038;-74
2022/08/20 06:50:08;;;;;;;7.13;4.32;;;24.40;56.50;;;;;;6005429;29;20045;-75
2022/08/20 06:53:12;;;;;;;7.47;3.85;;;24.50;56.40;;;;;;6008614;29;20037;-74
2022/08/20 06:56:13;;;;;;;7.75;3.97;;;24.50;56.20;;;;;;6010456;29;20060;-74
2022/08/20 06:59:14;;;;;;;5.70;3.63;;;24.70;56.00;;;;;;6008620;29;20081;-74
2022/08/20 07:02:15;;;;;;;9.55;4.20;;;24.70;55.80;;;;;;6016686;29;20048;-74
2022/08/20 07:05:17;;;;;;;9.05;4.50;;;24.70;55.70;;;;;;6008606;29;20049;-74
2022/08/20 07:08:20;;;;;;;6.03;4.28;;;24.80;55.70;;;;;;6007910;29;20034;-74
2022/08/20 07:11:22;;;;;;;15.38;4.70;;;24.90;55.60;;;;;;5992893;29;20063;-74
2022/08/20 07:14:24;;;;;;;6.78;4.35;;;25.00;55.40;;;;;;6010059;29;20061;-74
2022/08/20 07:17:25;;;;;;;9.10;4.57;;;25.00;55.10;;;;;;6007342;29;20065;-75
2022/08/20 07:20:27;;;;;;;5.82;3.92;;;25.10;54.90;;;;;;6009835;29;20412;-74
2022/08/20 07:23:30;;;;;;;6.45;4.18;;;25.10;54.70;;;;;;6005807;29;20104;-74
2022/08/20 07:26:31;;;;;;;9.98;4.55;;;25.10;54.60;;;;;;6007945;29;20560;-74
2022/08/20 07:32:52;;;;;;;7.45;4.55;;;25.20;54.30;;;;;;6007865;29;20429;-74
2022/08/20 07:35:54;;;;;;;10.00;4.68;;;25.20;54.30;;;;;;6010840;29;20042;-74
2022/08/20 07:38:56;;;;;;;8.07;4.50;;;25.20;54.40;;;;;;6011429;29;20057;-74
2022/08/20 07:42:03;;;;;;;5.60;4.18;;;25.20;54.20;;;;;;5992653;29;20134;-74
2022/08/20 07:45:11;;;;;;;17.38;4.38;;;25.20;54.10;;;;;;6009984;29;20037;-74
2022/08/20 07:48:13;;;;;;;7.85;4.60;;;25.10;54.10;;;;;;6009109;29;20133;-75
2022/08/20 07:51:17;;;;;;;11.88;4.63;;;25.20;54.10;;;;;;6009135;29;20117;-75
2022/08/20 07:54:19;;;;;;;9.15;4.97;;;25.20;54.00;;;;;;6009230;29;20095;-74
2022/08/20 07:57:20;;;;;;;7.05;4.40;;;25.40;53.90;;;;;;5999445;29;20045;-74
2022/08/20 08:00:25;;;;;;;6.47;4.47;;;25.50;53.60;;;;;;6013198;29;20372;-74
2022/08/20 08:03:28;;;;;;;7.18;4.20;;;25.70;53.40;;;;;;6008097;29;20046;-74
2022/08/20 08:06:29;;;;;;;6.63;4.30;;;25.90;53.10;;;;;;6009085;29;20075;-74
2022/08/20 08:09:32;;;;;;;7.05;4.07;;;26.10;52.90;;;;;;6009301;29;20476;-74
2022/08/20 08:12:43;;;;;;;9.63;4.85;;;26.20;52.60;;;;;;6013025;29;20093;-74
2022/08/20 08:15:49;;;;;;;12.65;4.88;;;26.30;52.30;;;;;;6008438;29;20034;-74
2022/08/20 08:18:55;;;;;;;8.75;4.53;;;26.40;52.30;;;;;;6011269;29;20488;-74
2022/08/20 08:21:56;;;;;;;5.38;3.58;;;26.40;52.20;;;;;;6011405;29;20041;-74
2022/08/20 08:25:01;;;;;;;9.85;4.68;;;26.50;52.50;;;;;;6014500;29;20042;-75
2022/08/20 08:28:02;;;;;;;8.57;4.63;;;26.50;52.80;;;;;;6002831;29;20046;-75
2022/08/20 08:31:04;;;;;;;14.27;4.63;;;26.40;53.00;;;;;;6015877;29;20045;-74
2022/08/20 08:34:05;;;;;;;6.13;4.43;;;26.40;53.20;;;;;;6004132;29;20130;-74
2022/08/20 08:37:06;;;;;;;7.80;4.43;;;26.40;53.70;;;;;;5995792;29;20136;-75
2022/08/20 08:40:08;;;;;;;6.97;4.20;;;26.30;54.00;;;;;;5997724;29;20069;-75
2022/08/20 08:43:12;;;;;;;7.18;4.50;;;26.10;54.30;;;;;;6004150;29;20053;-75
2022/08/20 08:46:17;;;;;;;9.95;4.55;;;26.00;54.90;;;;;;5999578;29;20042;-74
2022/08/20 08:49:21;;;;;;;8.07;4.38;;;25.90;55.20;;;;;;6010650;29;20393;-74
2022/08/20 08:52:30;;;;;;;5.63;3.53;;;25.80;55.40;;;;;;6004906;29;20080;-74
2022/08/20 08:55:32;;;;;;;7.70;4.10;;;25.80;55.70;;;;;;6014623;29;20090;-74
2022/08/20 08:58:34;;;;;;;11.85;6.55;;;25.80;55.90;;;;;;5997922;29;20046;-74
2022/08/20 09:01:42;;;;;;;9.77;4.40;;;25.80;56.20;;;;;;6005921;29;20046;-74
2022/08/20 09:04:43;;;;;;;7.22;4.55;;;25.90;56.30;;;;;;6004271;29;20041;-74
2022/08/20 09:07:48;;;;;;;6.63;4.28;;;26.00;56.40;;;;;;5982088;29;20052;-74
2022/08/20 09:10:49;;;;;;;9.43;4.25;;;25.90;56.40;;;;;;6012275;29;20041;-74
2022/08/20 09:13:54;;;;;;;9.88;5.20;;;25.80;56.50;;;;;;6015229;29;20141;-74
2022/08/20 09:16:55;;;;;;;6.97;4.20;;;25.80;56.80;;;;;;6014028;29;20049;-74
2022/08/20 09:19:56;;;;;;;8.70;4.10;;;25.80;56.90;;;;;;5982088;29;20065;-74
2022/08/20 09:22:58;;;;;;;8.30;4.43;;;25.80;57.00;;;;;;5997772;29;20046;-74
2022/08/20 09:25:59;;;;;;;5.15;4.22;;;25.90;57.00;;;;;;6006849;29;20464;-74
2022/08/20 09:29:00;;;;;;;12.38;5.47;;;25.90;56.90;;;;;;6012974;29;20600;-74
2022/08/20 09:32:14;;;;;;;7.88;4.72;;;26.00;56.80;;;;;;6012886;29;20042;-74
2022/08/20 09:35:16;;;;;;;8.95;5.07;;;26.10;56.60;;;;;;6006354;29;20053;-74
2022/08/20 09:38:17;;;;;;;9.95;4.82;;;26.30;56.20;;;;;;6011798;29;20068;-73
2022/08/20 09:41:19;;;;;;;8.20;4.70;;;26.50;56.00;;;;;;5996399;29;20057;-75
2022/08/20 09:44:20;;;;;;;7.15;4.32;;;26.80;55.60;;;;;;6013673;29;20369;-74
2022/08/20 09:47:21;;;;;;;11.52;5.13;;;27.10;55.10;;;;;;6013338;29;20042;-74
2022/08/20 09:50:28;;;;;;;8.82;5.22;;;27.40;54.40;;;;;;6011521;29;20054;-73
2022/08/20 09:53:30;;;;;;;6.90;4.30;;;27.70;54.00;;;;;;6013347;29;20034;-74
2022/08/20 09:56:34;;;;;;;6.25;4.50;;;27.90;53.40;;;;;;6012260;29;20038;-74
2022/08/20 09:59:37;;;;;;;8.38;4.53;;;28.10;52.90;;;;;;6011721;29;20038;-74
2022/08/20 10:02:39;;;;;;;7.47;4.47;;;28.20;52.60;;;;;;6012162;29;20037;-74
2022/08/20 10:05:40;;;;;;;8.85;4.43;;;28.20;52.40;;;;;;6006685;29;20041;-74
2022/08/20 10:08:41;;;;;;;7.80;4.28;;;28.30;52.30;;;;;;6013876;29;20464;-74
2022/08/20 10:11:43;;;;;;;5.95;4.20;;;28.30;52.10;;;;;;6014384;29;20121;-75
2022/08/20 10:14:44;;;;;;;9.43;4.00;;;28.40;51.70;;;;;;6011430;29;20107;-74
2022/08/20 10:17:45;;;;;;;12.07;4.95;;;28.50;51.40;;;;;;6001702;29;20034;-74
2022/08/20 10:20:46;;;;;;;9.70;4.80;;;28.50;51.20;;;;;;6012134;29;20061;-75
2022/08/20 10:23:48;;;;;;;6.80;4.90;;;28.50;51.00;;;;;;6012549;29;20038;-74
2022/08/20 10:26:53;;;;;;;5.72;3.85;;;28.40;50.70;;;;;;6011936;29;20069;-74
2022/08/20 10:29:54;;;;;;;7.05;3.40;;;28.40;50.70;;;;;;6012643;29;20093;-76
2022/08/20 10:32:55;;;;;;;5.05;3.55;;;28.40;50.60;;;;;;6011976;29;20385;-75
2022/08/20 10:35:56;;;;;;;5.03;3.15;;;28.40;50.70;;;;;;5995311;29;20540;-75
2022/08/20 10:38:58;;;;;;;5.03;3.33;;;28.40;50.60;;;;;;6012130;29;20345;-76
2022/08/20 10:41:59;;;;;;;3.25;2.33;;;28.40;50.60;;;;;;6011772;29;20134;-75
2022/08/20 10:45:00;;;;;;;1.30;1.20;;;28.50;50.40;;;;;;5994960;29;20129;-74
2022/08/20 10:48:01;;;;;;;1.50;1.40;;;28.50;50.30;;;;;;5993509;29;20042;-75
2022/08/20 10:51:02;;;;;;;1.73;1.10;;;28.60;50.30;;;;;;5992264;29;20129;-75
2022/08/20 10:54:04;;;;;;;1.05;0.93;;;28.70;49.90;;;;;;5995461;29;20068;-75
2022/08/20 10:57:05;;;;;;;2.10;1.10;;;29.00;49.40;;;;;;5995576;29;20046;-74
2022/08/20 11:00:09;;;;;;;2.33;0.93;;;29.30;48.70;;;;;;5981461;29;20048;-74
2022/08/20 11:03:10;;;;;;;0.60;0.52;;;29.70;47.80;;;;;;6010923;29;20126;-76
2022/08/20 11:06:11;;;;;;;1.10;0.52;;;30.00;46.60;;;;;;5994822;29;20077;-76
2022/08/20 11:09:12;;;;;;;2.17;0.50;;;30.30;45.70;;;;;;5995719;29;20048;-75
2022/08/20 11:12:14;;;;;;;1.48;0.77;;;30.60;45.00;;;;;;6002326;29;20124;-75
2022/08/20 11:15:15;;;;;;;1.58;0.60;;;30.90;44.50;;;;;;5995302;29;20066;-75
2022/08/20 11:18:17;;;;;;;0.60;0.60;;;31.20;44.00;;;;;;5995776;29;20117;-75
2022/08/20 11:21:18;;;;;;;0.50;0.50;;;31.50;43.20;;;;;;5994902;29;20048;-75
2022/08/20 11:24:19;;;;;;;1.88;0.70;;;31.70;42.70;;;;;;6011484;29;20052;-74
2022/08/20 11:27:37;;;;;;;0.60;0.50;;;32.10;42.10;;;;;;5993591;29;20124;-75
2022/08/20 11:30:38;;;;;;;3.40;0.73;;;32.30;41.20;;;;;;5991591;29;20083;-75
2022/08/20 11:33:40;;;;;;;1.15;0.65;;;32.40;40.50;;;;;;6009425;29;20089;-74
2022/08/20 11:36:41;;;;;;;2.63;0.98;;;32.40;39.70;;;;;;5993769;29;20808;-74
2022/08/20 11:39:43;;;;;;;1.05;0.70;;;32.30;39.90;;;;;;6009397;29;20125;-75
2022/08/20 11:42:46;;;;;;;0.93;0.50;;;32.10;40.40;;;;;;6008333;29;20447;-73
2022/08/20 11:45:53;;;;;;;1.75;0.80;;;32.10;40.30;;;;;;5993724;29;20087;-74
2022/08/20 11:48:54;;;;;;;0.65;0.50;;;32.20;40.00;;;;;;5992802;29;20034;-74
2022/08/20 11:51:55;;;;;;;0.80;0.57;;;32.20;39.90;;;;;;6008118;29;20030;-74
2022/08/20 11:54:57;;;;;;;0.45;0.45;;;32.30;39.70;;;;;;5993404;29;20090;-74
2022/08/20 11:57:59;;;;;;;1.63;0.70;;;32.50;39.00;;;;;;6007848;29;20214;-77
2022/08/20 12:01:00;;;;;;;0.70;0.70;;;32.70;38.60;;;;;;6009276;29;20030;-76
2022/08/20 12:04:01;;;;;;;0.60;0.60;;;32.90;38.70;;;;;;5999289;29;20034;-74
2022/08/20 12:07:14;;;;;;;0.80;0.80;;;33.10;37.70;;;;;;5994328;29;20052;-75
2022/08/20 12:10:15;;;;;;;0.70;0.70;;;33.10;37.60;;;;;;5992745;29;20030;-75
2022/08/20 12:13:17;;;;;;;1.13;0.60;;;33.30;37.40;;;;;;6008925;29;20057;-74
2022/08/20 12:16:18;;;;;;;0.80;0.70;;;33.40;36.80;;;;;;5981260;29;20452;-74
2022/08/20 12:19:20;;;;;;;0.80;0.80;;;33.60;36.60;;;;;;5995079;29;20042;-74
2022/08/20 12:22:21;;;;;;;0.70;0.70;;;33.80;36.10;;;;;;5992541;29;20042;-75
2022/08/20 12:25:22;;;;;;;1.63;0.70;;;34.20;35.20;;;;;;5991546;29;20057;-76
2022/08/20 12:28:23;;;;;;;0.80;0.70;;;34.20;35.10;;;;;;6008949;29;20054;-77
2022/08/20 12:31:25;;;;;;;0.70;0.70;;;34.10;35.30;;;;;;6008078;29;20125;-76
2022/08/20 12:34:26;;;;;;;2.80;0.70;;;34.40;34.80;;;;;;6009460;29;20034;-75
2022/08/20 12:37:29;;;;;;;0.80;0.70;;;34.70;34.40;;;;;;6007756;29;20102;-76
2022/08/20 12:40:31;;;;;;;2.15;0.70;;;34.90;33.80;;;;;;5992344;29;20040;-75
2022/08/20 12:43:32;;;;;;;0.98;0.60;;;35.20;33.50;;;;;;6008161;29;20034;-75
2022/08/20 12:46:33;;;;;;;1.25;0.60;;;35.40;33.00;;;;;;6008327;29;20078;-75
2022/08/20 12:49:35;;;;;;;0.95;0.57;;;35.80;32.50;;;;;;6008280;29;20379;-76
2022/08/20 12:52:37;;;;;;;1.38;0.90;;;36.30;31.60;;;;;;6009086;29;20125;-75
2022/08/20 12:55:38;;;;;;;0.68;0.63;;;36.70;31.00;;;;;;6008319;29;20038;-75
2022/08/20 12:58:39;;;;;;;1.10;0.40;;;37.00;30.40;;;;;;6001016;29;20038;-74
2022/08/20 13:01:40;;;;;;;0.90;0.77;;;37.30;29.40;;;;;;6008291;29;20495;-74
2022/08/20 13:04:41;;;;;;;0.70;0.50;;;36.80;29.60;;;;;;5992793;29;20042;-75
2022/08/20 13:07:43;;;;;;;2.75;0.70;;;35.70;30.90;;;;;;6010372;29;20042;-76
2022/08/20 13:10:45;;;;;;;0.70;0.70;;;34.70;32.50;;;;;;6020313;29;20072;-76
2022/08/20 13:13:46;;;;;;;0.60;0.60;;;34.50;33.10;;;;;;6015577;29;20046;-75
2022/08/20 13:16:52;;;;;;;0.43;0.43;;;34.00;33.50;;;;;;6017422;29;20575;-74
2022/08/20 13:19:54;;;;;;;0.95;0.50;;;34.10;33.50;;;;;;6014025;29;20778;-74
2022/08/20 13:22:55;;;;;;;0.77;0.68;;;34.40;32.60;;;;;;6009177;29;20050;-74
2022/08/20 13:25:56;;;;;;;0.63;0.60;;;34.30;32.90;;;;;;6011515;29;20441;-75
2022/08/20 13:28:57;;;;;;;1.75;0.88;;;34.70;33.10;;;;;;5996131;29;20102;-76
2022/08/20 13:31:58;;;;;;;0.75;0.75;;;35.70;32.20;;;;;;5984032;29;20572;-75
2022/08/20 13:34:59;;;;;;;0.60;0.57;;;36.60;30.40;;;;;;5997250;29;20053;-74
2022/08/20 13:38:01;;;;;;;0.50;0.50;;;37.40;29.40;;;;;;6011718;29;20058;-74
2022/08/20 13:41:02;;;;;;;4.90;1.65;;;36.70;30.00;;;;;;5995341;29;20121;-74
2022/08/20 13:44:03;;;;;;;0.50;0.50;;;36.60;30.10;;;;;;5995168;29;20129;-74
2022/08/20 13:47:20;;;;;;;1.13;0.68;;;37.00;29.60;;;;;;5989069;29;20061;-75
2022/08/20 13:50:24;;;;;;;0.50;0.50;;;36.30;30.50;;;;;;5993300;29;20097;-75
2022/08/20 13:53:25;;;;;;;0.63;0.63;;;36.20;30.60;;;;;;5994870;29;20392;-74
2022/08/20 13:56:27;;;;;;;2.25;0.50;;;36.90;29.80;;;;;;6011745;29;20038;-75
2022/08/20 13:59:28;;;;;;;1.63;0.70;;;38.00;28.80;;;;;;6013837;29;20153;-75
2022/08/20 14:02:29;;;;;;;0.60;0.60;;;38.90;28.00;;;;;;5994992;29;20037;-75
2022/08/20 14:05:31;;;;;;;3.30;0.68;;;39.40;27.00;;;;;;6011034;29;20070;-74
2022/08/20 14:08:32;;;;;;;0.55;0.40;;;38.60;27.30;;;;;;5995779;29;20371;-74
2022/08/20 14:11:33;;;;;;;0.95;0.40;;;37.40;28.40;;;;;;5993850;29;20042;-75
2022/08/20 14:14:34;;;;;;;0.90;0.50;;;36.20;29.70;;;;;;5991171;29;20228;-75
2022/08/20 14:17:40;;;;;;;0.45;0.45;;;35.10;31.10;;;;;;5994155;29;20118;-74
2022/08/20 14:20:44;;;;;;;0.68;0.68;;;34.20;32.80;;;;;;5992068;29;20417;-74
2022/08/20 14:23:45;;;;;;;0.93;0.65;;;33.40;33.40;;;;;;5993264;29;20042;-74
2022/08/20 14:26:47;;;;;;;0.60;0.60;;;32.90;34.30;;;;;;6009611;29;20366;-74
2022/08/20 14:29:49;;;;;;;1.50;0.60;;;32.70;35.00;;;;;;5992706;29;20050;-74
2022/08/20 14:32:51;;;;;;;0.43;0.43;;;32.70;35.10;;;;;;6009629;29;20053;-74
2022/08/20 14:35:52;;;;;;;0.55;0.55;;;32.70;35.40;;;;;;5994976;29;20070;-75
2022/08/20 14:38:54;;;;;;;0.50;0.50;;;32.70;35.20;;;;;;6008790;29;20038;-74
2022/08/20 14:41:55;;;;;;;1.10;0.50;;;32.70;35.10;;;;;;5975994;29;20466;-73
2022/08/20 14:44:57;;;;;;;0.57;0.50;;;32.60;35.30;;;;;;5990920;29;20038;-74
2022/08/20 14:47:58;;;;;;;0.50;0.40;;;32.40;35.60;;;;;;6009677;29;20065;-74
2022/08/20 14:51:00;;;;;;;0.50;0.50;;;32.10;36.00;;;;;;5995420;29;20481;-74
2022/08/20 14:54:01;;;;;;;1.20;0.50;;;31.90;36.50;;;;;;5997878;29;20499;-73
2022/08/20 14:57:03;;;;;;;1.55;0.60;;;31.70;37.00;;;;;;5994966;29;20091;-74
2022/08/20 15:00:10;;;;;;;0.70;0.45;;;31.60;37.40;;;;;;6009523;29;20045;-73
2022/08/20 15:03:12;;;;;;;1.27;0.60;;;31.60;37.60;;;;;;5993361;29;20408;-74
2022/08/20 15:06:13;;;;;;;0.70;0.70;;;31.70;37.70;;;;;;5977905;29;20046;-75
2022/08/20 15:09:14;;;;;;;0.57;0.55;;;31.80;37.50;;;;;;6008299;29;20046;-74
2022/08/20 15:12:15;;;;;;;0.35;0.35;;;31.80;37.40;;;;;;6008540;29;20140;-75
2022/08/20 15:15:17;;;;;;;0.50;0.40;;;31.70;37.40;;;;;;6009256;29;20034;-75
2022/08/20 15:18:20;;;;;;;0.40;0.40;;;31.50;37.60;;;;;;5978183;29;20368;-75
2022/08/20 15:21:22;;;;;;;0.63;0.50;;;31.40;38.00;;;;;;6009593;29;20069;-74
2022/08/20 15:24:23;;;;;;;0.38;0.38;;;31.30;38.30;;;;;;6008389;29;20056;-76
2022/08/20 15:27:25;;;;;;;1.33;0.63;;;31.50;38.40;;;;;;5995214;29;20056;-74
2022/08/20 15:30:27;;;;;;;0.40;0.40;;;31.20;38.40;;;;;;6008305;29;20041;-76
2022/08/20 15:33:28;;;;;;;0.40;0.40;;;31.10;38.60;;;;;;6003459;29;20053;-74
2022/08/20 15:36:30;;;;;;;0.63;0.40;;;31.10;38.80;;;;;;5992807;29;20038;-75
2022/08/20 15:39:31;;;;;;;2.80;0.70;;;31.10;39.10;;;;;;5998913;29;20042;-75
2022/08/20 15:42:32;;;;;;;0.55;0.50;;;31.00;39.10;;;;;;5999658;29;20045;-75
2022/08/20 15:45:34;;;;;;;0.60;0.60;;;31.10;39.00;;;;;;6007922;29;20392;-73
2022/08/20 15:48:42;;;;;;;1.00;0.35;;;31.30;38.90;;;;;;5991816;29;20065;-73
2022/08/20 15:51:48;;;;;;;2.60;0.40;;;31.50;38.70;;;;;;5991485;29;20038;-73
2022/08/20 15:54:49;;;;;;;4.13;0.60;;;31.80;38.40;;;;;;6008604;29;20533;-74